Time;durP1;ratioP1;P1;durP2;ratioP2;P2;SDS_P1;SDS_P2;PMS_P1;PMS_P2;Temp;Humidity;BMP_temperature;BMP_pressure;BME280_temperature;BME280_humidity;BME280_pressure;Samples;Min_cycle;Max_cycle;Signal;HPM_P1;HPM_P2
2022/03/10 00:01:16;;;;;;;;;;;;;;;17.50;41.91;102384.88;4963218;28;19953;-78
2022/03/10 00:03:41;;;;;;;;;;;;;;;17.51;42.07;102378.84;4948222;28;19969;-78
2022/03/10 00:06:06;;;;;;;;;;;;;;;17.49;41.83;102377.94;4964150;28;20277;-78
2022/03/10 00:08:31;;;;;;;;;;;;;;;17.51;42.07;102393.56;4963285;28;20397;-78
2022/03/10 00:10:57;;;;;;;;;;;;;;;17.51;41.84;102390.94;4963140;28;20284;-78
2022/03/10 00:13:26;;;;;;;;;;;;;;;17.49;41.73;102390.94;4962850;28;19993;-78
2022/03/10 00:15:51;;;;;;;;;;;;;;;17.48;41.77;102387.47;4947236;28;19994;-78
2022/03/10 00:18:17;;;;;;;;;;;;;;;17.48;41.94;102382.28;4946154;28;19964;-79
2022/03/10 00:20:42;;;;;;;;;;;;;;;17.47;41.63;102388.31;4945983;28;19922;-78
2022/03/10 00:23:07;;;;;;;;;;;;;;;17.48;41.79;102389.19;4978772;28;19944;-78
2022/03/10 00:25:33;;;;;;;;;;;;;;;17.48;41.53;102381.38;4946700;28;19961;-78
2022/03/10 00:27:58;;;;;;;;;;;;;;;17.48;41.61;102378.78;4945775;28;19988;-78
2022/03/10 00:30:23;;;;;;;;;;;;;;;17.46;41.71;102378.78;4961331;28;19918;-78
2022/03/10 00:32:50;;;;;;;;;;;;;;;17.47;41.86;102379.63;4945800;28;19954;-78
2022/03/10 00:35:20;;;;;;;;;;;;;;;17.47;41.35;102379.63;4976643;28;19929;-78
2022/03/10 00:37:46;;;;;;;;;;;;;;;17.47;41.79;102379.63;4960891;28;19922;-78
2022/03/10 00:40:12;;;;;;;;;;;;;;;17.45;41.69;102370.94;4960005;28;19937;-78
2022/03/10 00:42:38;;;;;;;;;;;;;;;17.45;41.82;102368.31;4972835;28;19918;-78
2022/03/10 00:45:04;;;;;;;;;;;;;;;17.45;41.57;102371.78;4959727;29;19922;-78
2022/03/10 00:47:30;;;;;;;;;;;;;;;17.45;41.66;102369.19;4946794;28;19918;-78
2022/03/10 00:49:55;;;;;;;;;;;;;;;17.45;41.85;102376.13;4979162;28;19929;-78
2022/03/10 00:52:21;;;;;;;;;;;;;;;17.44;41.41;102371.75;4986062;28;19919;-78
2022/03/10 00:54:46;;;;;;;;;;;;;;;17.43;41.68;102373.50;4970061;29;20022;-79
2022/03/10 00:57:11;;;;;;;;;;;;;;;17.43;41.66;102380.44;4966728;28;19919;-78
2022/03/10 00:59:36;;;;;;;;;;;;;;;17.43;41.49;102385.66;4947103;29;19929;-78
2022/03/10 01:02:02;;;;;;;;;;;;;;;17.42;41.53;102376.97;4969707;28;19925;-78
2022/03/10 01:04:27;;;;;;;;;;;;;;;17.42;41.63;102376.97;4988871;28;19922;-78
2022/03/10 01:06:52;;;;;;;;;;;;;;;17.41;41.52;102372.59;4956202;28;19945;-78
2022/03/10 01:09:17;;;;;;;;;;;;;;;17.42;41.61;102369.16;4974762;28;19981;-78
2022/03/10 01:11:42;;;;;;;;;;;;;;;17.41;41.46;102370.00;4969514;28;19922;-78
2022/03/10 01:14:08;;;;;;;;;;;;;;;17.41;41.50;102366.53;4951710;29;19925;-78
2022/03/10 01:16:33;;;;;;;;;;;;;;;17.40;41.66;102373.47;4967682;29;19922;-78
2022/03/10 01:18:58;;;;;;;;;;;;;;;17.41;41.31;102371.72;4950748;29;19961;-78
2022/03/10 01:21:23;;;;;;;;;;;;;;;17.40;41.68;102370.00;4950367;29;19973;-78
2022/03/10 01:23:49;;;;;;;;;;;;;;;17.40;41.37;102375.19;4953709;28;20412;-78
2022/03/10 01:26:14;;;;;;;;;;;;;;;17.39;41.45;102369.09;4985625;28;19925;-78
2022/03/10 01:28:39;;;;;;;;;;;;;;;17.39;41.21;102371.69;4984774;28;19922;-78
2022/03/10 01:31:05;;;;;;;;;;;;;;;17.38;41.56;102371.69;4989739;28;19922;-79
2022/03/10 01:33:30;;;;;;;;;;;;;;;17.38;41.45;102362.16;5003999;28;19918;-78
2022/03/10 01:35:55;;;;;;;;;;;;;;;17.38;41.49;102359.56;4949420;29;19927;-78
2022/03/10 01:38:20;;;;;;;;;;;;;;;17.36;41.50;102358.66;4954127;28;19921;-78
2022/03/10 01:40:46;;;;;;;;;;;;;;;17.36;41.35;102361.25;4966661;29;20016;-78
2022/03/10 01:43:11;;;;;;;;;;;;;;;17.37;41.56;102360.38;4950311;29;19919;-79
2022/03/10 01:45:36;;;;;;;;;;;;;;;17.36;41.39;102356.06;4950554;29;19925;-78
2022/03/10 01:48:01;;;;;;;;;;;;;;;17.37;41.45;102362.13;4968601;29;19958;-78
2022/03/10 01:50:27;;;;;;;;;;;;;;;17.36;41.37;102360.38;4967404;28;19911;-78
2022/03/10 01:52:52;;;;;;;;;;;;;;;17.35;41.37;102361.22;4950548;28;19950;-78
2022/03/10 01:55:18;;;;;;;;;;;;;;;17.35;41.37;102359.47;4970484;28;20058;-77
2022/03/10 01:57:44;;;;;;;;;;;;;;;17.34;41.36;102365.56;4987547;28;19926;-78
2022/03/10 02:00:10;;;;;;;;;;;;;;;17.34;41.17;102369.91;4968733;29;20362;-78
2022/03/10 02:02:35;;;;;;;;;;;;;;;17.34;41.29;102372.50;4968395;28;19915;-78
2022/03/10 02:05:00;;;;;;;;;;;;;;;17.33;41.38;102369.00;4955795;28;19992;-78
2022/03/10 02:10:19;;;;;;;;;;;;;;;17.34;41.40;102369.91;4988836;28;19921;-78
2022/03/10 02:12:46;;;;;;;;;;;;;;;17.33;41.53;102368.13;4969921;28;19918;-78
2022/03/10 02:17:58;;;;;;;;;;;;;;;17.32;41.25;102364.66;4979816;28;19926;-78
2022/03/10 02:20:23;;;;;;;;;;;;;;;17.31;41.30;102362.03;4980997;28;19915;-78
2022/03/10 02:22:49;;;;;;;;;;;;;;;17.31;41.32;102364.63;4980015;28;19962;-78
2022/03/10 02:25:15;;;;;;;;;;;;;;;17.30;41.26;102374.16;4964525;29;20361;-78
2022/03/10 02:27:41;;;;;;;;;;;;;;;17.31;41.45;102367.22;4954991;28;19918;-78
2022/03/10 02:30:07;;;;;;;;;;;;;;;17.31;41.26;102377.63;5003828;28;19953;-78
2022/03/10 02:32:33;;;;;;;;;;;;;;;17.31;41.45;102378.53;4974057;28;19942;-78
2022/03/10 02:34:58;;;;;;;;;;;;;;;17.30;41.33;102374.16;4954214;28;19933;-78
2022/03/10 02:37:23;;;;;;;;;;;;;;;17.29;41.47;102375.03;4987037;28;19958;-78
2022/03/10 02:39:48;;;;;;;;;;;;;;;17.28;41.44;102371.53;4977300;28;19919;-78
2022/03/10 02:42:14;;;;;;;;;;;;;;;17.29;41.34;102380.22;4954467;28;19922;-78
2022/03/10 02:44:40;;;;;;;;;;;;;;;17.28;41.41;102386.28;4987320;28;19949;-77
2022/03/10 02:47:06;;;;;;;;;;;;;;;17.27;41.25;102377.59;4978732;28;19922;-77
2022/03/10 02:49:31;;;;;;;;;;;;;;;17.27;41.47;102376.72;4967085;28;19969;-77
2022/03/10 02:51:56;;;;;;;;;;;;;;;17.28;41.21;102378.47;4993042;28;19921;-77
2022/03/10 02:54:21;;;;;;;;;;;;;;;17.26;41.38;102377.56;4986345;28;19922;-77
2022/03/10 02:56:47;;;;;;;;;;;;;;;17.26;41.49;102382.75;4979588;28;19919;-77
2022/03/10 02:59:12;;;;;;;;;;;;;;;17.25;41.04;102376.69;4967479;29;19930;-78
2022/03/10 03:01:37;;;;;;;;;;;;;;;17.24;41.10;102372.31;4948592;28;19918;-78
2022/03/10 03:04:03;;;;;;;;;;;;;;;17.25;41.33;102381.03;4952992;28;19925;-78
2022/03/10 03:06:28;;;;;;;;;;;;;;;17.25;41.29;102378.44;5000977;28;19973;-78
2022/03/10 03:08:53;;;;;;;;;;;;;;;17.23;41.44;102383.59;4966762;28;19919;-77
2022/03/10 03:11:18;;;;;;;;;;;;;;;17.24;41.26;102385.31;4949862;28;19930;-77
2022/03/10 03:13:43;;;;;;;;;;;;;;;17.24;41.30;102381.84;4951922;28;20002;-77
2022/03/10 03:16:09;;;;;;;;;;;;;;;17.24;41.15;102381.84;4984199;28;20388;-77
2022/03/10 03:18:34;;;;;;;;;;;;;;;17.22;41.28;102384.47;4983733;28;20012;-77
2022/03/10 03:20:59;;;;;;;;;;;;;;;17.22;41.20;102388.75;4968951;28;19922;-77
2022/03/10 03:23:25;;;;;;;;;;;;;;;17.22;41.14;102394.88;4964366;29;20013;-77
2022/03/10 03:25:51;;;;;;;;;;;;;;;17.22;41.09;102396.56;4948402;29;20400;-77
2022/03/10 03:28:16;;;;;;;;;;;;;;;17.21;41.33;102400.91;4967772;28;19921;-77
2022/03/10 03:30:42;;;;;;;;;;;;;;;17.21;40.97;102398.31;4984220;28;19918;-77
2022/03/10 03:33:07;;;;;;;;;;;;;;;17.21;40.91;102394.84;4980930;28;20350;-77
2022/03/10 03:35:32;;;;;;;;;;;;;;;17.21;41.33;102405.25;4946369;29;19926;-78
2022/03/10 03:37:58;;;;;;;;;;;;;;;17.19;41.24;102400.00;4966164;28;20301;-78
2022/03/10 03:40:23;;;;;;;;;;;;;;;17.20;41.02;102400.88;4966696;28;19914;-78
2022/03/10 03:42:48;;;;;;;;;;;;;;;17.20;40.99;102403.47;4982548;28;19918;-78
2022/03/10 03:45:13;;;;;;;;;;;;;;;17.19;41.09;102401.72;4963083;29;19922;-78
2022/03/10 03:47:39;;;;;;;;;;;;;;;17.19;41.09;102406.94;4949609;28;20005;-78
2022/03/10 03:50:04;;;;;;;;;;;;;;;17.18;40.96;102411.28;4961902;29;19926;-78
2022/03/10 03:52:29;;;;;;;;;;;;;;;17.18;41.27;102410.38;4964383;29;20277;-78
2022/03/10 03:54:55;;;;;;;;;;;;;;;17.17;41.12;102413.84;4950410;28;19926;-78
2022/03/10 03:57:20;;;;;;;;;;;;;;;17.18;41.23;102418.19;4984014;28;19922;-78
2022/03/10 03:59:45;;;;;;;;;;;;;;;17.17;41.21;102412.09;4985911;28;20329;-78
2022/03/10 04:02:10;;;;;;;;;;;;;;;17.17;41.27;102424.25;4949777;28;20017;-78
2022/03/10 04:04:36;;;;;;;;;;;;;;;17.17;41.23;102424.25;4962479;28;19922;-78
2022/03/10 04:07:01;;;;;;;;;;;;;;;17.15;41.10;102419.00;4947086;29;19922;-78
2022/03/10 04:09:26;;;;;;;;;;;;;;;17.15;41.42;102419.00;4951529;28;19973;-78
2022/03/10 04:11:51;;;;;;;;;;;;;;;17.15;41.30;102413.81;4968421;28;19914;-78
2022/03/10 04:14:18;;;;;;;;;;;;;;;17.14;41.10;102417.25;4965567;28;19940;-78
2022/03/10 04:16:44;;;;;;;;;;;;;;;17.15;41.19;102423.34;4954603;28;20039;-78
2022/03/10 04:19:09;;;;;;;;;;;;;;;17.14;41.42;102414.66;4973629;28;19914;-78
2022/03/10 04:21:34;;;;;;;;;;;;;;;17.13;41.59;102412.03;4992473;28;19922;-78
2022/03/10 04:23:59;;;;;;;;;;;;;;;17.14;40.99;102416.41;4954939;28;19929;-78
2022/03/10 04:26:25;;;;;;;;;;;;;;;17.13;41.15;102418.09;4952926;29;19919;-78
2022/03/10 04:28:50;;;;;;;;;;;;;;;17.13;40.92;102420.69;4970765;29;20361;-79
2022/03/10 04:31:16;;;;;;;;;;;;;;;17.12;40.99;102415.50;4971743;28;19922;-78
2022/03/10 04:33:41;;;;;;;;;;;;;;;17.12;41.05;102412.88;4971991;28;19961;-78
2022/03/10 04:36:07;;;;;;;;;;;;;;;17.11;41.40;102412.00;4972582;28;19933;-78
2022/03/10 04:38:32;;;;;;;;;;;;;;;17.11;41.16;102416.31;4954392;29;19918;-78
2022/03/10 04:40:57;;;;;;;;;;;;;;;17.11;41.09;102418.94;4953292;29;19919;-78
2022/03/10 04:43:22;;;;;;;;;;;;;;;17.10;40.89;102418.06;4969594;29;19918;-78
2022/03/10 04:45:48;;;;;;;;;;;;;;;17.10;41.15;102422.38;4962477;28;19922;-78
2022/03/10 04:48:14;;;;;;;;;;;;;;;17.10;40.97;102417.19;5010164;28;20288;-79
2022/03/10 04:50:39;;;;;;;;;;;;;;;17.10;41.23;102419.78;4985225;28;19930;-77
2022/03/10 04:53:05;;;;;;;;;;;;;;;17.09;40.91;102416.28;4970338;29;19982;-78
2022/03/10 04:55:30;;;;;;;;;;;;;;;17.09;41.12;102418.03;4962588;28;19934;-78
2022/03/10 04:57:55;;;;;;;;;;;;;;;17.08;41.06;102413.69;4995139;28;19925;-77
2022/03/10 05:00:21;;;;;;;;;;;;;;;17.07;41.35;102415.38;4995985;28;19991;-79
2022/03/10 05:02:47;;;;;;;;;;;;;;;17.06;41.26;102414.50;4974823;28;19973;-77
2022/03/10 05:05:13;;;;;;;;;;;;;;;17.06;41.23;102409.31;4971471;29;19919;-77
2022/03/10 05:07:39;;;;;;;;;;;;;;;17.06;41.27;102404.09;4955439;29;19918;-78
2022/03/10 05:10:04;;;;;;;;;;;;;;;17.05;41.28;102407.56;4970770;29;19914;-78
2022/03/10 05:12:29;;;;;;;;;;;;;;;17.06;41.08;102417.13;4953906;28;19990;-78
2022/03/10 05:14:55;;;;;;;;;;;;;;;17.04;41.31;102411.00;4957968;28;19918;-78
2022/03/10 05:17:23;;;;;;;;;;;;;;;17.05;41.03;102417.97;4968570;28;19918;-77
2022/03/10 05:19:48;;;;;;;;;;;;;;;17.05;41.13;102419.72;4988773;28;19921;-77
2022/03/10 05:22:14;;;;;;;;;;;;;;;17.04;40.96;102416.22;4970492;28;19914;-77
2022/03/10 05:24:39;;;;;;;;;;;;;;;17.03;41.10;102419.69;4970849;29;19919;-77
2022/03/10 05:27:04;;;;;;;;;;;;;;;17.05;41.11;102427.50;4952568;29;19918;-77
2022/03/10 05:29:29;;;;;;;;;;;;;;;17.03;40.95;102418.81;4952150;29;20013;-78
2022/03/10 05:31:55;;;;;;;;;;;;;;;17.03;41.03;102418.81;4970806;28;19922;-77
2022/03/10 05:34:20;;;;;;;;;;;;;;;17.02;41.13;102424.84;4988066;28;19984;-77
2022/03/10 05:36:45;;;;;;;;;;;;;;;17.03;41.12;102421.41;4977219;28;19949;-78
2022/03/10 05:39:10;;;;;;;;;;;;;;;17.02;40.89;102425.72;5002354;28;19922;-78
2022/03/10 05:41:36;;;;;;;;;;;;;;;17.01;41.28;102421.38;4968022;28;19919;-78
2022/03/10 05:44:01;;;;;;;;;;;;;;;17.00;40.88;102422.19;4973002;28;19981;-79
2022/03/10 05:46:27;;;;;;;;;;;;;;;17.01;41.11;102423.97;4972049;28;19914;-78
2022/03/10 05:48:52;;;;;;;;;;;;;;;17.01;41.05;102417.91;4967758;29;20377;-79
2022/03/10 05:51:17;;;;;;;;;;;;;;;17.01;40.87;102417.91;4970439;28;19922;-78
2022/03/10 05:53:42;;;;;;;;;;;;;;;17.00;41.11;102414.41;4992611;28;19929;-79
2022/03/10 05:56:08;;;;;;;;;;;;;;;17.00;40.98;102413.53;4975333;28;19965;-79
2022/03/10 05:58:34;;;;;;;;;;;;;;;17.00;41.29;102414.41;4952937;28;19918;-77
2022/03/10 06:00:59;;;;;;;;;;;;;;;16.99;41.00;102407.47;4969008;28;19921;-77
2022/03/10 06:03:24;;;;;;;;;;;;;;;16.98;40.97;102410.91;4953325;28;19972;-78
2022/03/10 06:05:50;;;;;;;;;;;;;;;17.00;41.24;102413.53;4954442;28;20309;-78
2022/03/10 06:08:15;;;;;;;;;;;;;;;16.98;41.43;102410.91;4968314;28;19921;-78
2022/03/10 06:10:40;;;;;;;;;;;;;;;16.98;41.58;102410.91;4951759;28;20001;-78
2022/03/10 06:13:06;;;;;;;;;;;;;;;17.00;41.66;102422.19;4963628;28;20467;-79
2022/03/10 06:15:31;;;;;;;;;;;;;;;17.00;41.62;102416.13;4976596;28;20288;-77
2022/03/10 06:17:56;;;;;;;;;;;;;;;17.01;41.87;102418.78;4972536;28;19946;-81
2022/03/10 06:20:22;;;;;;;;;;;;;;;17.02;41.77;102425.72;5078565;23;20017;-78
2022/03/10 06:22:47;;;;;;;;;;;;;;;17.02;41.89;102419.63;4932811;29;20021;-80
2022/03/10 06:25:13;;;;;;;;;;;;;;;17.16;42.47;102425.97;4940486;29;19918;-78
2022/03/10 06:27:38;;;;;;;;;;;;;;;17.28;42.29;102423.56;4937978;29;19942;-77
2022/03/10 06:30:04;;;;;;;;;;;;;;;17.35;42.08;102421.06;4941707;29;19919;-77
2022/03/10 06:32:29;;;;;;;;;;;;;;;17.38;42.29;102418.53;4945626;29;19926;-78
2022/03/10 06:34:56;;;;;;;;;;;;;;;17.41;42.29;102424.66;4955069;28;19969;-78
2022/03/10 06:37:21;;;;;;;;;;;;;;;17.44;42.30;102431.63;4943074;28;20372;-78
2022/03/10 06:39:47;;;;;;;;;;;;;;;17.45;42.47;102430.78;5112928;23;20851;-83
2022/03/10 06:42:12;;;;;;;;;;;;;;;17.46;42.47;102425.63;4983817;28;19934;-78
2022/03/10 06:44:37;;;;;;;;;;;;;;;17.49;42.55;102427.38;4970853;28;19965;-80
2022/03/10 06:47:04;;;;;;;;;;;;;;;17.50;42.35;102426.53;4944806;29;19942;-79
2022/03/10 06:49:29;;;;;;;;;;;;;;;17.53;42.35;102424.00;4962267;28;19974;-80
2022/03/10 06:51:55;;;;;;;;;;;;;;;17.53;42.34;102433.50;4961012;28;19925;-79
2022/03/10 06:54:23;;;;;;;;;;;;;;;17.58;42.47;102430.13;4952144;28;19926;-80
2022/03/10 06:56:48;;;;;;;;;;;;;;;17.62;42.46;102434.53;4936413;29;19926;-79
2022/03/10 06:59:13;;;;;;;;;;;;;;;17.68;42.33;102444.16;4937888;29;19922;-82
2022/03/10 07:01:39;;;;;;;;;;;;;;;17.68;42.16;102433.75;4950125;29;19919;-79
2022/03/10 07:04:04;;;;;;;;;;;;;;;17.64;42.45;102431.97;4932919;29;19919;-80
2022/03/10 07:06:29;;;;;;;;;;;;;;;17.64;42.44;102442.38;4939554;28;19947;-80
2022/03/10 07:08:55;;;;;;;;;;;;;;;17.64;42.32;102440.66;4938239;28;19914;-80
2022/03/10 07:11:20;;;;;;;;;;;;;;;17.66;42.38;102441.56;4932448;29;19918;-80
2022/03/10 07:13:46;;;;;;;;;;;;;;;17.66;42.24;102451.09;4931443;29;19918;-80
2022/03/10 07:16:11;;;;;;;;;;;;;;;17.67;42.15;102451.09;4946487;29;19915;-79
2022/03/10 07:18:37;;;;;;;;;;;;;;;17.68;42.32;102447.66;4935328;29;20416;-79
2022/03/10 07:21:04;;;;;;;;;;;;;;;17.70;42.23;102452.88;4951875;29;19938;-81
2022/03/10 07:23:29;;;;;;;;;;;;;;;17.70;42.32;102455.47;4968752;29;19953;-81
2022/03/10 07:26:10;;;;;;;;;;;;;;;17.71;42.35;102454.63;4957275;29;19915;-84
2022/03/10 07:28:35;;;;;;;;;;;;;;;17.74;42.23;102448.59;4956216;29;20282;-80
2022/03/10 07:31:01;;;;;;;;;;;;;;;17.82;42.10;102460.03;4957262;29;19922;-80
2022/03/10 07:33:26;;;;;;;;;;;;;;;17.98;41.77;102453.31;4948738;29;20025;-79
2022/03/10 07:35:51;;;;;;;;;;;;;;;18.14;41.51;102450.09;4962219;29;19981;-79
2022/03/10 07:38:17;;;;;;;;;;;;;;;18.12;41.48;102456.13;4943651;29;19998;-79
2022/03/10 07:40:42;;;;;;;;;;;;;;;17.99;41.60;102448.16;4924141;29;19923;-79
2022/03/10 07:43:08;;;;;;;;;;;;;;;17.93;41.81;102452.41;4924173;29;20021;-79
2022/03/10 07:45:33;;;;;;;;;;;;;;;17.91;42.09;102446.28;4923258;29;19941;-79
2022/03/10 07:47:59;;;;;;;;;;;;;;;17.89;41.88;102457.53;4923142;29;20017;-79
2022/03/10 07:50:24;;;;;;;;;;;;;;;17.88;42.02;102457.53;4940144;29;19921;-79
2022/03/10 07:52:49;;;;;;;;;;;;;;;17.89;42.04;102447.13;4923344;29;19941;-80
2022/03/10 07:55:14;;;;;;;;;;;;;;;17.91;41.81;102454.09;4927325;29;20366;-79
2022/03/10 07:57:41;;;;;;;;;;;;;;;18.38;41.00;102448.66;4927860;29;19926;-79
2022/03/10 08:00:06;;;;;;;;;;;;;;;18.87;39.78;102441.44;4949462;29;19907;-82
2022/03/10 08:02:32;;;;;;;;;;;;;;;19.08;39.48;102446.88;4931411;29;20036;-80
2022/03/10 08:04:57;;;;;;;;;;;;;;;19.11;39.45;102446.03;4940135;29;19926;-81
2022/03/10 08:07:42;;;;;;;;;;;;;;;19.10;39.48;102432.13;4960093;29;20018;-82
2022/03/10 08:10:19;;;;;;;;;;;;;;;19.15;39.40;102437.38;4952107;29;19899;-82
2022/03/10 08:12:51;;;;;;;;;;;;;;;19.11;39.54;102428.63;4961227;28;19922;-82
2022/03/10 08:15:17;;;;;;;;;;;;;;;19.07;39.74;102421.63;4959192;29;19918;-82
2022/03/10 08:21:15;;;;;;;;;;;;;;;19.08;39.65;102427.75;4923138;29;19927;-81
2022/03/10 08:26:48;;;;;;;;;;;;;;;19.02;39.84;102422.47;4922255;29;19918;-82
2022/03/10 08:29:19;;;;;;;;;;;;;;;19.02;39.85;102422.47;4922046;29;19923;-82
2022/03/10 08:39:58;;;;;;;;;;;;;;;18.93;39.88;102423.25;5607309;23;19911;-82
2022/03/10 08:42:23;;;;;;;;;;;;;;;18.91;39.98;102425.84;4981492;28;19957;-82
2022/03/10 09:05:00;;;;;;;;;;;;;;;18.68;40.19;102411.63;4960117;29;19925;-83
2022/03/10 09:11:00;;;;;;;;;;;;;;;18.63;40.11;102408.13;4942149;29;19983;-83
2022/03/10 09:22:43;;;;;;;;;;;;;;;18.60;40.12;102406.34;4905050;29;19961;-83
2022/03/10 09:28:33;;;;;;;;;;;;;;;18.57;40.31;102398.47;4904994;29;19932;-83
2022/03/10 09:37:43;;;;;;;;;;;;;;;18.47;40.36;102394.03;4885502;29;19973;-83
2022/03/10 09:40:10;;;;;;;;;;;;;;;18.46;40.39;102385.31;4882972;29;19908;-83
2022/03/10 09:42:51;;;;;;;;;;;;;;;18.42;40.51;102390.47;4866197;29;19916;-83
2022/03/10 09:45:59;;;;;;;;;;;;;;;18.39;40.73;102393.06;4884828;29;19941;-83
2022/03/10 09:48:54;;;;;;;;;;;;;;;18.37;40.54;102389.56;4880469;29;19908;-83
2022/03/10 09:54:35;;;;;;;;;;;;;;;18.33;40.77;102388.66;4886151;29;19944;-83
2022/03/10 10:00:08;;;;;;;;;;;;;;;18.30;40.84;102383.41;4884577;29;19941;-82
2022/03/10 10:03:01;;;;;;;;;;;;;;;18.29;40.94;102379.03;4864435;29;19916;-83
2022/03/10 10:05:46;;;;;;;;;;;;;;;18.28;41.08;102380.78;4917760;29;19915;-82
2022/03/10 10:08:43;;;;;;;;;;;;;;;18.26;40.98;102382.50;4915878;29;19971;-83
2022/03/10 10:14:34;;;;;;;;;;;;;;;18.24;41.10;102373.78;4919676;29;19947;-80
2022/03/10 10:17:00;;;;;;;;;;;;;;;18.24;41.14;102378.13;4989012;23;19965;-79
2022/03/10 10:19:26;;;;;;;;;;;;;;;18.23;41.09;102385.06;4945938;28;19926;-80
2022/03/10 10:22:07;;;;;;;;;;;;;;;18.23;41.20;102386.81;4962748;28;19922;-79
2022/03/10 10:24:32;;;;;;;;;;;;;;;18.22;41.17;102390.25;4964997;28;20004;-79
2022/03/10 10:27:11;;;;;;;;;;;;;;;18.21;41.17;102384.16;4949946;28;19950;-80
2022/03/10 10:29:44;;;;;;;;;;;;;;;18.24;41.05;102383.34;4964820;28;19921;-80
2022/03/10 10:32:09;;;;;;;;;;;;;;;18.25;41.13;102378.16;4965389;28;19914;-79
2022/03/10 10:34:35;;;;;;;;;;;;;;;18.25;41.58;102378.16;4948406;28;19969;-81
2022/03/10 10:37:00;;;;;;;;;;;;;;;18.28;41.53;102375.56;4950689;28;19976;-81
2022/03/10 10:39:25;;;;;;;;;;;;;;;18.30;41.57;102370.38;4973521;28;19925;-81
2022/03/10 10:41:50;;;;;;;;;;;;;;;18.33;41.69;102367.78;4978511;28;19914;-81
2022/03/10 10:44:23;;;;;;;;;;;;;;;18.33;41.62;102366.94;4979014;28;19925;-83
2022/03/10 10:46:54;;;;;;;;;;;;;;;18.35;41.60;102362.63;4968272;28;22232;-81
2022/03/10 10:49:20;;;;;;;;;;;;;;;18.37;41.69;102363.50;4964545;28;20006;-80
2022/03/10 10:51:45;;;;;;;;;;;;;;;18.37;41.67;102353.94;4948953;28;20005;-80
2022/03/10 10:54:25;;;;;;;;;;;;;;;18.37;41.58;102360.91;4963715;28;19941;-81
2022/03/10 10:56:55;;;;;;;;;;;;;;;18.40;41.70;102355.72;4965203;28;19918;-81
2022/03/10 10:59:27;;;;;;;;;;;;;;;18.41;41.79;102355.72;4965455;28;19914;-81
2022/03/10 11:02:03;;;;;;;;;;;;;;;18.40;41.72;102355.72;4966013;28;19914;-79
2022/03/10 11:04:30;;;;;;;;;;;;;;;18.42;41.62;102354.00;4952873;29;20373;-80
2022/03/10 11:06:56;;;;;;;;;;;;;;;18.44;41.64;102357.50;4948334;29;20368;-80
2022/03/10 11:09:21;;;;;;;;;;;;;;;18.45;41.85;102356.66;4933995;28;19965;-79
2022/03/10 11:11:47;;;;;;;;;;;;;;;18.45;41.96;102354.91;4945781;28;19922;-80
2022/03/10 11:14:12;;;;;;;;;;;;;;;18.46;42.00;102351.44;4962080;28;19922;-79
2022/03/10 11:16:38;;;;;;;;;;;;;;;18.48;41.79;102357.53;4961676;28;19922;-80
2022/03/10 11:19:03;;;;;;;;;;;;;;;18.48;41.87;102351.47;4949812;29;19977;-80
2022/03/10 11:21:34;;;;;;;;;;;;;;;18.50;41.92;102349.75;4942047;29;19919;-80
2022/03/10 11:24:18;;;;;;;;;;;;;;;18.50;41.75;102345.41;4960691;29;19918;-80
2022/03/10 11:26:45;;;;;;;;;;;;;;;18.50;41.82;102345.41;4941058;29;19969;-80
2022/03/10 11:29:12;;;;;;;;;;;;;;;18.51;41.89;102341.09;4944939;28;19919;-80
2022/03/10 11:31:37;;;;;;;;;;;;;;;18.52;41.80;102339.34;4957622;28;19914;-80
2022/03/10 11:34:03;;;;;;;;;;;;;;;18.50;41.89;102337.59;4954504;28;19914;-79
2022/03/10 11:36:30;;;;;;;;;;;;;;;18.49;42.09;102333.25;4946211;28;19933;-80
2022/03/10 11:38:58;;;;;;;;;;;;;;;18.48;42.13;102328.00;4974999;28;19914;-81
2022/03/10 11:41:24;;;;;;;;;;;;;;;18.48;42.07;102325.41;4962567;28;19922;-81
2022/03/10 11:43:58;;;;;;;;;;;;;;;18.46;42.22;102322.75;4963533;28;19914;-80
2022/03/10 11:46:30;;;;;;;;;;;;;;;18.45;42.28;102325.38;4979845;28;19910;-80
2022/03/10 11:49:04;;;;;;;;;;;;;;;18.45;42.28;102322.78;4963829;28;19924;-80
2022/03/10 11:51:45;;;;;;;;;;;;;;;18.45;42.22;102320.16;4964341;28;19921;-80
2022/03/10 11:54:11;;;;;;;;;;;;;;;18.45;42.30;102328.84;4963666;28;19914;-80
2022/03/10 11:56:43;;;;;;;;;;;;;;;18.45;42.06;102314.94;4932078;29;19927;-81
2022/03/10 11:59:18;;;;;;;;;;;;;;;18.44;42.10;102315.78;4930691;29;19958;-80
2022/03/10 12:01:43;;;;;;;;;;;;;;;18.44;42.08;102310.56;4928336;29;19974;-80
2022/03/10 12:04:21;;;;;;;;;;;;;;;18.43;41.90;102308.84;4907560;29;19927;-80
2022/03/10 12:06:56;;;;;;;;;;;;;;;18.44;42.13;102305.38;4938755;29;20294;-80
2022/03/10 12:09:31;;;;;;;;;;;;;;;18.44;42.09;102307.97;4939637;29;20384;-80
2022/03/10 12:12:13;;;;;;;;;;;;;;;18.44;42.02;102301.06;4938237;29;19915;-80
2022/03/10 12:14:38;;;;;;;;;;;;;;;18.43;42.08;102291.47;4922052;29;19930;-80
2022/03/10 12:17:04;;;;;;;;;;;;;;;18.44;41.96;102292.34;4937782;29;20271;-80
2022/03/10 12:19:48;;;;;;;;;;;;;;;18.45;41.76;102287.16;4921815;29;19927;-80
2022/03/10 12:22:26;;;;;;;;;;;;;;;18.45;41.76;102279.31;4921421;29;20362;-80
2022/03/10 12:25:11;;;;;;;;;;;;;;;18.45;41.89;102274.09;4937420;29;20386;-80
2022/03/10 12:27:47;;;;;;;;;;;;;;;18.46;41.78;102268.03;4958051;28;19914;-80
2022/03/10 12:30:13;;;;;;;;;;;;;;;18.45;41.76;102266.28;4960174;28;19966;-80
2022/03/10 12:32:44;;;;;;;;;;;;;;;18.47;41.90;102261.97;4959706;28;19918;-80
2022/03/10 12:35:09;;;;;;;;;;;;;;;18.48;41.88;102261.09;4960238;28;19957;-80
2022/03/10 12:37:34;;;;;;;;;;;;;;;18.48;41.73;102263.69;4961393;28;19919;-78
2022/03/10 12:40:00;;;;;;;;;;;;;;;18.48;41.74;102255.88;4946503;28;20017;-79
2022/03/10 12:42:25;;;;;;;;;;;;;;;18.49;41.66;102252.44;4966535;28;19921;-81
2022/03/10 12:44:53;;;;;;;;;;;;;;;18.49;41.82;102246.34;4964564;28;19926;-78
2022/03/10 12:47:20;;;;;;;;;;;;;;;18.50;41.52;102251.56;4977349;28;19925;-79
2022/03/10 12:49:48;;;;;;;;;;;;;;;18.51;41.69;102249.84;4957948;28;19922;-79
2022/03/10 12:52:15;;;;;;;;;;;;;;;18.52;41.64;102233.34;4955726;28;19918;-78
2022/03/10 12:54:41;;;;;;;;;;;;;;;18.52;41.57;102240.28;4972716;28;19914;-78
2022/03/10 12:57:07;;;;;;;;;;;;;;;18.52;41.55;102228.13;4976462;28;19918;-79
2022/03/10 12:59:34;;;;;;;;;;;;;;;18.52;41.50;102227.25;4958421;28;20432;-79
2022/03/10 13:02:12;;;;;;;;;;;;;;;18.53;41.12;102221.16;4970497;28;19921;-79
2022/03/10 13:04:45;;;;;;;;;;;;;;;18.51;41.12;102226.38;4969962;28;20292;-79
2022/03/10 13:07:12;;;;;;;;;;;;;;;18.51;41.10;102221.16;4967829;28;19914;-79
2022/03/10 13:09:38;;;;;;;;;;;;;;;18.51;41.02;102221.16;4967066;28;19982;-79
2022/03/10 13:12:04;;;;;;;;;;;;;;;18.52;40.94;102222.91;4966049;28;19918;-79
2022/03/10 13:14:29;;;;;;;;;;;;;;;18.53;40.75;102222.06;4967725;28;19915;-80
2022/03/10 13:16:55;;;;;;;;;;;;;;;18.55;40.70;102214.22;4955213;28;19929;-79
2022/03/10 13:19:32;;;;;;;;;;;;;;;18.55;40.81;102209.88;4949835;28;19976;-80
2022/03/10 13:22:01;;;;;;;;;;;;;;;18.56;40.77;102216.84;4966037;28;19995;-79
2022/03/10 13:24:42;;;;;;;;;;;;;;;18.56;40.70;102206.44;4949181;28;19918;-79
2022/03/10 13:27:09;;;;;;;;;;;;;;;18.57;40.68;102199.47;4957103;28;19919;-79
2022/03/10 13:29:34;;;;;;;;;;;;;;;18.59;40.70;102198.63;4948977;29;20072;-79
2022/03/10 13:32:00;;;;;;;;;;;;;;;18.60;40.76;102202.13;4936858;28;19961;-79
2022/03/10 13:34:26;;;;;;;;;;;;;;;18.59;40.85;102197.75;4948354;29;20277;-79
2022/03/10 13:36:52;;;;;;;;;;;;;;;18.61;40.76;102199.50;4943015;29;19922;-79
2022/03/10 13:39:21;;;;;;;;;;;;;;;18.62;40.62;102200.41;4943042;29;20393;-79
2022/03/10 13:41:46;;;;;;;;;;;;;;;18.62;40.65;102198.66;4942664;29;20321;-79
2022/03/10 13:44:15;;;;;;;;;;;;;;;18.62;40.53;102192.59;4941304;28;19992;-78
2022/03/10 13:46:40;;;;;;;;;;;;;;;18.63;40.61;102192.56;4961412;28;19929;-79
2022/03/10 13:49:18;;;;;;;;;;;;;;;18.64;40.66;102181.31;4946511;29;19918;-79